This is the latest recevied weather packets stored in our database for station/object KHOP. If no packets are shown the sender has not sent any weather packets the latest 1 day(s).
| Time | Temp. | Humidity | Pressure | Rain* | Wind** | Luminosity | Snow |
|---|---|---|---|---|---|---|---|
| 1836274580 | 20° C | 88% | 1017.3 hPa | - | 0 m/s | - | - |
| 1836274431 | 20° C | 88% | 1017.3 hPa | - | 0 m/s | - | - |
| 1836273979 | 20° C | 88% | 1017.3 hPa | - | 0 m/s | - | - |
| 1778054009 | 10.56° C | 93% | 1008.8 hPa | - | 5.36 m/s, 310° | - | - |
| 1778053412 | 10.56° C | 93% | 1007.8 hPa | - | 2.68 m/s, 350° | - | - |
| 1778052811 | 10.56° C | 93% | 1007.8 hPa | - | 2.68 m/s, 350° | - | - |
| 1778052211 | 10.56° C | 93% | 1008.5 hPa | - | 5.36 m/s, 320° | - | - |
| 1778051612 | 10.56° C | 93% | 1007.8 hPa | - | 4.47 m/s, 340° | - | - |
| 1778051013 | 10.56° C | 93% | 1007.8 hPa | - | 4.47 m/s, 340° | - | - |
| 1778050408 | 10.56° C | 93% | 1007.5 hPa | - | 5.81 m/s, 340° | - | - |
| 1778049809 | 10.56° C | 93% | 1007.5 hPa | - | 5.81 m/s, 340° | - | - |
| 1778049216 | 11.67° C | 87% | 1007.1 hPa | - | 4.92 m/s, 340° | - | - |
| 1778048611 | 11.67° C | 87% | 1007.1 hPa | - | 4.92 m/s, 340° | - | - |
| 1778048010 | 11.67° C | 93% | 1007.5 hPa | - | 4.47 m/s, 340° | - | - |
| 1778047415 | 11.67° C | 93% | 1007.5 hPa | - | 4.47 m/s, 340° | - | - |
| 1778046812 | 13.89° C | 93% | 1007.5 hPa | - | 5.81 m/s, 310° | - | - |
| 1778046216 | 13.89° C | 93% | 1007.5 hPa | - | 5.81 m/s, 310° | - | - |
| 1778045609 | 16.67° C | 88% | 1007.1 hPa | - | 4.92 m/s, 310° | - | - |
| 1778045011 | 17.78° C | 93% | 1006.8 hPa | - | 4.92 m/s, 310° | - | - |
| 1778044410 | 18.89° C | 88% | 1006.4 hPa | - | 7.6 m/s, 300° | - | - |
| 1778043813 | 18.89° C | 88% | 1006.4 hPa | - | 7.6 m/s, 300° | - | - |
| 1778043210 | 18.89° C | 82% | 1005.4 hPa | - | 5.81 m/s, 190° | - | - |
| 1778042612 | 18.89° C | 82% | 1005.8 hPa | - | 5.81 m/s, 190° | - | - |
| 1778042011 | 18.89° C | 82% | 1005.8 hPa | - | 5.81 m/s, 190° | - | - |
| 1778041412 | 18.89° C | 82% | 1005.8 hPa | - | 5.81 m/s, 190° | - | - |
* Rain since midnight (hover to see other rain measurements)
** Current wind speed in m/s (hover to see current wind gust speed)